Time;durP1;ratioP1;P1;durP2;ratioP2;P2;SDS_P1;SDS_P2;PMS_P1;PMS_P2;Temp;Humidity;BMP_temperature;BMP_pressure;BME280_temperature;BME280_humidity;BME280_pressure;Samples;Min_cycle;Max_cycle;Signal;HPM_P1;HPM_P2
2023/02/03 00:01:21;;;;;;;17.77;3.97;;;;;;;16.38;100.00;102297.22;5067549;28;20041;-53
2023/02/03 00:03:47;;;;;;;16.13;2.97;;;;;;;17.50;100.00;102306.97;5059986;28;20055;-55
2023/02/03 00:06:13;;;;;;;13.05;3.25;;;;;;;16.18;100.00;102305.19;5062672;28;20038;-52
2023/02/03 00:08:38;;;;;;;12.48;2.75;;;;;;;17.30;100.00;102313.22;5060554;28;20051;-53
2023/02/03 00:11:04;;;;;;;14.83;3.30;;;;;;;16.42;100.00;102303.88;5061601;28;20037;-49
2023/02/03 00:13:30;;;;;;;15.75;2.53;;;;;;;16.55;100.00;102316.63;5063335;28;20033;-51
2023/02/03 00:15:56;;;;;;;26.80;3.87;;;;;;;16.66;100.00;102336.84;5064328;28;20048;-55
2023/02/03 00:18:21;;;;;;;25.77;3.95;;;;;;;16.81;100.00;102330.44;5063428;28;20029;-50
2023/02/03 00:20:47;;;;;;;17.37;2.83;;;;;;;16.59;100.00;102327.84;5057644;28;20033;-54
2023/02/03 00:23:12;;;;;;;13.37;3.07;;;;;;;16.87;100.00;102338.59;5058824;28;20313;-56
2023/02/03 00:25:38;;;;;;;18.40;3.53;;;;;;;17.16;100.00;102341.22;5060739;28;20112;-51
2023/02/03 00:28:04;;;;;;;13.93;3.35;;;;;;;17.13;100.00;102345.16;5065195;28;20087;-53
2023/02/03 00:30:30;;;;;;;20.70;3.45;;;;;;;16.37;100.00;102346.81;5064855;28;20029;-52
2023/02/03 00:32:55;;;;;;;17.10;3.30;;;;;;;16.99;100.00;102343.47;5056140;28;20064;-54
2023/02/03 00:35:22;;;;;;;20.65;3.50;;;;;;;16.75;100.00;102338.31;5061748;28;20057;-52
2023/02/03 00:37:52;;;;;;;15.15;3.17;;;;;;;16.48;100.00;102346.28;5059797;28;20061;-55
2023/02/03 00:40:21;;;;;;;13.10;2.87;;;;;;;16.39;100.00;102350.19;5061497;28;20025;-50
2023/02/03 00:42:47;;;;;;;15.10;3.80;;;;;;;16.94;100.00;102351.28;5059570;28;20263;-54
2023/02/03 00:45:12;;;;;;;20.05;3.28;;;;;;;17.10;100.00;102356.38;5056312;28;20281;-55
2023/02/03 00:47:38;;;;;;;18.27;4.13;;;;;;;16.80;100.00;102366.59;5061662;28;20063;-51
2023/02/03 00:50:05;;;;;;;22.13;3.83;;;;;;;16.98;100.00;102361.53;5056922;28;20056;-53
2023/02/03 00:52:30;;;;;;;18.07;3.27;;;;;;;16.87;100.00;102356.69;5060510;28;20029;-53
2023/02/03 00:54:56;;;;;;;16.73;3.40;;;;;;;16.96;100.00;102360.88;5056959;28;20267;-54
2023/02/03 00:57:21;;;;;;;23.63;4.20;;;;;;;16.85;100.00;102356.06;5056681;28;20048;-54
2023/02/03 00:59:47;;;;;;;22.70;3.57;;;;;;;16.41;100.00;102348.13;5059372;28;20289;-56
2023/02/03 01:02:12;;;;;;;17.48;3.72;;;;;;;16.20;100.00;102330.94;5061571;28;20048;-53
2023/02/03 01:04:38;;;;;;;11.53;2.90;;;;;;;16.22;100.00;102349.63;5059761;28;20075;-55
2023/02/03 01:07:03;;;;;;;17.10;3.33;;;;;;;16.75;100.00;102354.53;5060340;28;20037;-54
2023/02/03 01:09:33;;;;;;;19.88;3.22;;;;;;;16.34;100.00;102336.41;5055872;28;20021;-55
2023/02/03 01:11:59;;;;;;;15.20;3.03;;;;;;;16.39;100.00;102328.59;5060416;28;20033;-53
2023/02/03 01:14:24;;;;;;;15.13;3.40;;;;;;;16.39;100.00;102327.75;5057860;28;20289;-53
2023/02/03 01:16:50;;;;;;;18.13;2.70;;;;;;;16.97;100.00;102335.50;5056156;28;20060;-53
2023/02/03 01:19:16;;;;;;;12.38;2.67;;;;;;;17.09;100.00;102327.69;5060434;28;20060;-55
2023/02/03 01:21:42;;;;;;;11.93;3.13;;;;;;;17.42;100.00;102320.72;5059769;28;20061;-55
2023/02/03 01:24:08;;;;;;;12.98;2.83;;;;;;;16.80;100.00;102301.75;5058396;28;20068;-55
2023/02/03 01:26:34;;;;;;;7.00;3.25;;;;;;;17.32;100.00;102332.75;5056917;28;20499;-56
2023/02/03 01:29:00;;;;;;;13.07;2.73;;;;;;;16.61;100.00;102332.03;5058548;28;20035;-52
2023/02/03 01:31:35;;;;;;;11.95;2.47;;;;;;;16.80;100.00;102326.94;5062650;28;20353;-53
2023/02/03 01:34:02;;;;;;;14.20;3.67;;;;;;;16.47;100.00;102317.63;5061775;28;20044;-52
2023/02/03 01:36:30;;;;;;;15.67;3.63;;;;;;;16.47;100.00;102311.38;5063459;28;20297;-54
2023/02/03 01:38:55;;;;;;;16.63;2.93;;;;;;;16.48;100.00;102316.59;5058618;28;20275;-55
2023/02/03 01:41:25;;;;;;;10.27;2.27;;;;;;;16.34;100.00;102315.69;5063467;28;20269;-55
2023/02/03 01:43:53;;;;;;;9.57;3.30;;;;;;;16.66;100.00;102307.13;5060955;28;20102;-54
2023/02/03 01:46:40;;;;;;;8.77;3.17;;;;;;;16.57;100.00;102302.91;5063687;28;20337;-54
2023/02/03 01:49:08;;;;;;;21.17;3.27;;;;;;;16.84;100.00;102306.56;5062696;28;20358;-53
2023/02/03 01:51:37;;;;;;;13.70;2.53;;;;;;;16.97;100.00;102281.47;5055360;28;20274;-53
2023/02/03 01:54:04;;;;;;;18.03;2.60;;;;;;;16.83;100.00;102268.94;5060213;28;20292;-54
2023/02/03 01:56:37;;;;;;;17.10;3.73;;;;;;;17.24;100.00;102280.75;5058066;28;20270;-54
2023/02/03 01:59:03;;;;;;;14.60;2.70;;;;;;;17.00;100.00;102283.78;5058632;28;20344;-53
2023/02/03 02:01:30;;;;;;;23.67;3.55;;;;;;;16.68;100.00;102291.56;5060745;28;20332;-53
2023/02/03 02:03:58;;;;;;;10.10;2.53;;;;;;;16.89;100.00;102298.69;5057714;28;20025;-57
2023/02/03 02:06:24;;;;;;;10.17;2.60;;;;;;;16.93;100.00;102288.31;5059638;28;20297;-52
2023/02/03 02:08:52;;;;;;;16.20;3.03;;;;;;;16.57;100.00;102297.50;5062577;28;20281;-53
2023/02/03 02:11:20;;;;;;;16.20;3.97;;;;;;;17.71;100.00;102305.13;5058519;28;20042;-55
2023/02/03 02:13:47;;;;;;;26.87;4.97;;;;;;;17.27;100.00;102296.56;5059325;28;20297;-55
2023/02/03 02:16:28;;;;;;;14.13;2.83;;;;;;;16.24;100.00;102282.78;5061781;28;20284;-51
2023/02/03 02:19:15;;;;;;;13.37;2.60;;;;;;;16.57;100.00;102276.75;5058723;28;20282;-54
2023/02/03 02:22:16;;;;;;;11.70;3.17;;;;;;;17.26;100.00;102279.47;5059938;28;20278;-52
2023/02/03 02:25:22;;;;;;;17.37;3.40;;;;;;;17.13;100.00;102274.88;5059167;28;20063;-54
2023/02/03 02:28:10;;;;;;;14.33;2.90;;;;;;;17.02;100.00;102287.13;5059401;28;20304;-51
2023/02/03 02:30:35;;;;;;;17.73;3.30;;;;;;;16.58;100.00;102294.63;5056897;28;20278;-53
2023/02/03 02:33:12;;;;;;;11.73;2.50;;;;;;;17.05;100.00;102294.81;5059116;28;20331;-53
2023/02/03 02:35:53;;;;;;;8.40;2.30;;;;;;;16.83;100.00;102291.41;5057981;28;20060;-53
2023/02/03 02:38:58;;;;;;;9.73;3.73;;;;;;;16.63;100.00;102288.63;5058873;28;20029;-50
2023/02/03 02:41:36;;;;;;;17.23;2.30;;;;;;;16.27;100.00;102292.38;5059604;28;20784;-53
2023/02/03 02:44:38;;;;;;;15.30;2.53;;;;;;;17.05;100.00;102292.13;5060284;28;20273;-53
2023/02/03 02:47:13;;;;;;;12.63;2.53;;;;;;;16.75;100.00;102278.09;5055104;28;20309;-49
2023/02/03 02:49:55;;;;;;;17.50;3.40;;;;;;;16.86;100.00;102279.38;5058984;28;20262;-52
2023/02/03 02:52:22;;;;;;;10.10;3.10;;;;;;;17.34;100.00;102273.91;5059424;28;20301;-51
2023/02/03 02:54:52;;;;;;;16.10;2.97;;;;;;;16.96;100.00;102285.22;5062966;28;20277;-51
2023/02/03 02:57:22;;;;;;;15.43;2.50;;;;;;;16.91;100.00;102271.47;5065265;28;20293;-49
2023/02/03 02:59:48;;;;;;;32.67;3.63;;;;;;;17.05;100.00;102258.88;5058559;28;20278;-51
2023/02/03 03:02:14;;;;;;;13.97;3.83;;;;;;;16.53;100.00;102258.44;5063975;28;20305;-55
2023/02/03 03:04:43;;;;;;;18.23;2.90;;;;;;;16.90;100.00;102259.81;5064103;28;20059;-54
2023/02/03 03:07:17;;;;;;;15.00;3.67;;;;;;;16.58;100.00;102242.47;5059843;28;20029;-50
2023/02/03 03:09:49;;;;;;;12.43;2.63;;;;;;;16.48;100.00;102267.97;5067412;28;20285;-56
2023/02/03 03:12:23;;;;;;;14.50;3.43;;;;;;;16.47;100.00;102254.66;5063303;28;20317;-53
2023/02/03 03:14:56;;;;;;;14.77;2.87;;;;;;;16.76;100.00;102242.75;5054529;28;20294;-53
2023/02/03 03:17:27;;;;;;;15.83;3.63;;;;;;;17.02;100.00;102227.66;5058798;28;20289;-50
2023/02/03 03:19:55;;;;;;;16.00;3.60;;;;;;;17.11;100.00;102227.50;5063169;28;20290;-49
2023/02/03 03:22:30;;;;;;;13.00;2.80;;;;;;;16.97;100.00;102224.72;5066886;28;20267;-49
2023/02/03 03:25:08;;;;;;;7.80;2.30;;;;;;;16.45;100.00;102241.38;5065775;28;20272;-50
2023/02/03 03:27:42;;;;;;;10.53;3.70;;;;;;;16.54;100.00;102246.59;5067407;28;20297;-52
2023/02/03 03:30:13;;;;;;;20.93;5.00;;;;;;;16.81;100.00;102238.59;5057335;28;20259;-54
2023/02/03 03:32:40;;;;;;;13.10;3.50;;;;;;;16.95;100.00;102253.81;5063799;28;20342;-53
2023/02/03 03:35:06;;;;;;;13.55;4.00;;;;;;;16.92;100.00;102267.75;5063125;28;20305;-51
2023/02/03 03:37:40;;;;;;;12.43;3.20;;;;;;;16.66;100.00;102282.81;5063527;28;20037;-52
2023/02/03 03:40:14;;;;;;;26.57;4.83;;;;;;;17.36;100.00;102278.28;5062883;28;20354;-52
2023/02/03 03:42:53;;;;;;;17.23;4.20;;;;;;;17.26;100.00;102274.06;5057383;28;20263;-54
2023/02/03 03:45:42;;;;;;;14.60;3.30;;;;;;;16.95;100.00;102270.03;5063597;28;20297;-52
2023/02/03 03:48:15;;;;;;;16.30;3.43;;;;;;;17.15;100.00;102261.19;5062368;28;20284;-50
2023/02/03 03:50:49;;;;;;;13.87;3.40;;;;;;;17.52;100.00;102264.31;5060633;28;20267;-53
2023/02/03 03:53:17;;;;;;;17.33;4.67;;;;;;;16.88;100.00;102261.09;5060958;28;20266;-53
2023/02/03 03:55:47;;;;;;;12.50;2.50;;;;;;;16.43;100.00;102264.19;5064049;28;20269;-49
2023/02/03 03:58:18;;;;;;;20.07;3.03;;;;;;;17.18;100.00;102263.47;5062300;28;20347;-49
2023/02/03 04:00:46;;;;;;;12.20;2.27;;;;;;;16.56;100.00;102280.50;5060509;28;20285;-52
2023/02/03 04:03:20;;;;;;;12.73;3.70;;;;;;;16.37;100.00;102282.03;5062388;28;20300;-49
2023/02/03 04:05:46;;;;;;;16.87;3.37;;;;;;;16.57;100.00;102274.06;5054533;28;20281;-54
2023/02/03 04:08:12;;;;;;;19.52;3.45;;;;;;;16.53;100.00;102285.44;5060059;28;20349;-52
2023/02/03 04:10:40;;;;;;;8.93;2.83;;;;;;;17.01;100.00;102298.16;5062287;28;20044;-55
2023/02/03 04:13:07;;;;;;;17.53;4.07;;;;;;;16.91;100.00;102287.69;5057238;28;20033;-53
2023/02/03 04:15:33;;;;;;;17.27;3.13;;;;;;;17.02;100.00;102270.09;5067337;28;20281;-50
2023/02/03 04:18:00;;;;;;;8.80;3.05;;;;;;;17.12;100.00;102283.22;5063100;28;20274;-50
2023/02/03 04:20:26;;;;;;;14.68;3.50;;;;;;;16.70;100.00;102296.72;5064800;28;20047;-54
2023/02/03 04:22:52;;;;;;;;;;;;;;;17.44;100.00;102286.19;5064138;28;20059;-48
2023/02/03 04:25:17;;;;;;;14.93;3.03;;;;;;;17.17;100.00;102289.66;5060626;28;19909;-52
2023/02/03 04:27:43;;;;;;;17.00;3.10;;;;;;;16.96;100.00;102284.41;5062048;28;20122;-54
2023/02/03 04:30:09;;;;;;;21.27;3.08;;;;;;;16.79;100.00;102300.94;5061864;28;20093;-49
2023/02/03 04:32:35;;;;;;;15.90;4.22;;;;;;;17.12;100.00;102283.22;5061297;28;20041;-54
2023/02/03 04:35:02;;;;;;;18.33;2.55;;;;;;;16.73;100.00;102286.38;5063797;28;20049;-52
2023/02/03 04:37:28;;;;;;;15.80;2.73;;;;;;;16.84;100.00;102273.31;5057916;28;20053;-53
2023/02/03 04:39:54;;;;;;;18.27;2.87;;;;;;;16.40;100.00;102287.06;5059318;28;20292;-50
2023/02/03 04:42:20;;;;;;;13.70;3.30;;;;;;;16.71;100.00;102274.94;5060157;28;20182;-52
2023/02/03 04:44:46;;;;;;;13.23;2.78;;;;;;;16.82;100.00;102272.69;5058835;28;20278;-54
2023/02/03 04:47:11;;;;;;;11.73;2.83;;;;;;;17.19;100.00;102282.19;5060262;28;20045;-54
2023/02/03 04:49:37;;;;;;;12.05;3.53;;;;;;;16.73;100.00;102289.06;5062931;28;20025;-53
2023/02/03 04:52:03;;;;;;;6.63;2.83;;;;;;;16.79;100.00;102273.94;5061582;28;20039;-50
2023/02/03 04:54:28;;;;;;;14.55;2.45;;;;;;;16.67;100.00;102264.72;5063870;28;20053;-54
2023/02/03 04:56:53;;;;;;;10.20;2.57;;;;;;;16.89;100.00;102278.97;5063598;28;20053;-51
2023/02/03 04:59:19;;;;;;;10.50;2.13;;;;;;;16.94;100.00;102289.97;5060497;28;20308;-52
2023/02/03 05:01:44;;;;;;;16.93;2.77;;;;;;;16.91;100.00;102268.78;5059931;28;20029;-54
2023/02/03 05:04:10;;;;;;;8.75;2.50;;;;;;;17.18;100.00;102266.16;5059716;28;20030;-53
2023/02/03 05:06:35;;;;;;;20.83;3.17;;;;;;;17.25;100.00;102258.91;5062858;28;20058;-54
2023/02/03 05:09:01;;;;;;;12.30;2.93;;;;;;;16.74;100.00;102263.72;5054833;28;20034;-51
2023/02/03 05:11:27;;;;;;;15.88;2.92;;;;;;;17.26;100.00;102268.66;5061689;28;20334;-51
2023/02/03 05:13:54;;;;;;;12.88;2.25;;;;;;;16.62;100.00;102259.94;5059392;28;20037;-53
2023/02/03 05:16:19;;;;;;;10.17;2.13;;;;;;;16.57;100.00;102276.75;5057940;28;20088;-51
2023/02/03 05:18:45;;;;;;;15.63;4.18;;;;;;;16.82;100.00;102278.94;5061563;28;20036;-53
2023/02/03 05:21:11;;;;;;;10.37;2.87;;;;;;;17.10;100.00;102285.28;5059441;28;20048;-54
2023/02/03 05:23:36;;;;;;;16.25;3.97;;;;;;;16.47;100.00;102276.25;5058094;28;20033;-53
2023/02/03 05:26:02;;;;;;;18.60;5.30;;;;;;;16.93;100.00;102274.81;5060054;28;20044;-51
2023/02/03 05:28:28;;;;;;;13.63;4.75;;;;;;;16.22;100.00;102284.03;5061435;28;20355;-53
2023/02/03 05:30:57;;;;;;;15.73;3.63;;;;;;;16.82;100.00;102267.28;5060396;28;20028;-52
2023/02/03 05:33:22;;;;;;;17.30;3.47;;;;;;;16.71;100.00;102266.84;5060623;28;20491;-53
2023/02/03 05:35:48;;;;;;;12.18;3.40;;;;;;;16.75;100.00;102275.38;5060459;28;20270;-48
2023/02/03 05:38:14;;;;;;;15.30;3.47;;;;;;;16.94;100.00;102287.28;5067383;28;20055;-52
2023/02/03 05:43:24;;;;;;;16.93;5.07;;;;;;;16.63;100.00;102292.16;5060627;28;20041;-52
2023/02/03 05:45:49;;;;;;;19.27;4.33;;;;;;;17.42;100.00;102289.09;5060790;28;20273;-51
2023/02/03 05:48:15;;;;;;;15.18;3.58;;;;;;;16.89;100.00;102284.38;5060859;28;20025;-49
2023/02/03 05:50:41;;;;;;;22.30;5.03;;;;;;;17.31;100.00;102282.44;5059572;28;20029;-51
2023/02/03 05:53:07;;;;;;;15.70;4.53;;;;;;;16.47;100.00;102285.22;5053713;28;20021;-51
2023/02/03 05:55:34;;;;;;;17.27;3.90;;;;;;;17.24;100.00;102278.84;5056538;28;20044;-49
2023/02/03 05:58:00;;;;;;;12.00;3.33;;;;;;;16.60;100.00;102292.56;5056265;28;20036;-52
2023/02/03 06:00:26;;;;;;;;;;;;;;;17.06;100.00;102280.25;5058013;28;20298;-53
2023/02/03 06:02:57;;;;;;;20.63;3.40;;;;;;;16.66;100.00;102280.13;5054803;28;19972;-52
2023/02/03 06:05:24;;;;;;;17.43;4.20;;;;;;;17.15;100.00;102283.63;5057088;28;20278;-53
2023/02/03 06:07:50;;;;;;;21.97;3.93;;;;;;;17.45;100.00;102277.03;5057969;28;20277;-52
2023/02/03 06:10:16;;;;;;;14.27;2.55;;;;;;;16.66;100.00;102280.13;5058437;28;20283;-51
2023/02/03 06:12:42;;;;;;;29.33;4.23;;;;;;;16.88;100.00;102266.47;5058927;28;20036;-53
2023/02/03 06:15:09;;;;;;;14.37;3.20;;;;;;;16.95;100.00;102252.97;5061862;28;20309;-52
2023/02/03 06:17:35;;;;;;;19.67;3.93;;;;;;;16.33;100.00;102260.00;5059624;28;20028;-50
2023/02/03 06:20:10;;;;;;;18.88;3.00;;;;;;;16.94;100.00;102256.72;5060510;28;20030;-52
2023/02/03 06:22:36;;;;;;;13.27;3.17;;;;;;;16.77;100.00;102270.59;5058927;28;20033;-50
2023/02/03 06:25:01;;;;;;;15.63;3.00;;;;;;;16.72;100.00;102270.34;5058020;28;20273;-53
2023/02/03 06:27:27;;;;;;;12.77;3.67;;;;;;;16.19;100.00;102263.66;5055806;28;20040;-52
2023/02/03 06:29:52;;;;;;;11.93;2.93;;;;;;;16.86;100.00;102273.97;5065316;28;20063;-52
2023/02/03 06:32:18;;;;;;;11.57;3.07;;;;;;;17.01;100.00;102269.25;5057163;28;20282;-48
2023/02/03 06:34:43;;;;;;;21.23;3.88;;;;;;;17.01;100.00;102254.91;5060612;28;20030;-56
2023/02/03 06:37:09;;;;;;;20.43;4.00;;;;;;;16.94;100.00;102273.78;5064462;28;20037;-50
2023/02/03 06:39:34;;;;;;;19.13;3.65;;;;;;;17.26;100.00;102273.25;5066564;28;20113;-51
2023/02/03 06:42:00;;;;;;;13.23;5.33;;;;;;;17.57;100.00;102278.09;5060397;28;20048;-50
2023/02/03 06:44:26;;;;;;;20.73;3.92;;;;;;;16.78;100.00;102281.19;5063661;28;20030;-54
2023/02/03 06:46:52;;;;;;;19.17;3.90;;;;;;;17.29;100.00;102297.19;5065167;28;20055;-53
2023/02/03 06:49:17;;;;;;;19.02;3.95;;;;;;;17.02;100.00;102300.63;5064044;28;20094;-52
2023/02/03 06:51:44;;;;;;;30.85;4.97;;;;;;;16.89;100.00;102303.28;5060338;28;20033;-51
2023/02/03 06:54:11;;;;;;;24.20;5.57;;;;;;;17.06;100.00;102312.69;5064979;28;20060;-50
2023/02/03 06:56:37;;;;;;;20.93;6.13;;;;;;;16.98;100.00;102318.28;5062053;28;20033;-52
2023/02/03 06:59:03;;;;;;;20.30;6.30;;;;;;;16.60;100.00;102340.31;5062041;28;20279;-51
2023/02/03 07:01:29;;;;;;;20.20;6.20;;;;;;;16.65;100.00;102310.88;5061658;28;20025;-51
2023/02/03 07:03:57;;;;;;;23.42;4.43;;;;;;;16.60;100.00;102316.00;5062476;28;20044;-53
2023/02/03 07:06:28;;;;;;;30.17;6.83;;;;;;;16.48;100.00;102321.13;5066077;28;20033;-50
2023/02/03 07:08:55;;;;;;;20.57;5.07;;;;;;;17.31;100.00;102314.03;5061572;28;20278;-53
2023/02/03 07:11:21;;;;;;;18.57;3.83;;;;;;;17.07;100.00;102318.94;5063958;28;20353;-50
2023/02/03 07:13:47;;;;;;;21.40;3.83;;;;;;;17.34;100.00;102309.06;5062285;28;20267;-52
2023/02/03 07:16:13;;;;;;;26.02;4.45;;;;;;;17.38;100.00;102320.28;5060884;28;20029;-54
2023/02/03 07:18:38;;;;;;;24.33;4.90;;;;;;;17.11;100.00;102322.09;5060780;28;20029;-56
2023/02/03 07:21:05;;;;;;;22.33;3.67;;;;;;;16.45;100.00;102329.63;5062765;28;20026;-51
2023/02/03 07:23:32;;;;;;;15.00;4.77;;;;;;;16.42;100.00;102327.34;5066890;28;20029;-51
2023/02/03 07:26:03;;;;;;;15.32;3.05;;;;;;;16.62;100.00;102322.06;5062086;28;20351;-53
2023/02/03 07:28:30;;;;;;;17.10;3.53;;;;;;;16.66;100.00;102304.44;5067417;28;20036;-49
2023/02/03 07:30:55;;;;;;;;;;;;;;;16.54;100.00;102333.88;5067764;28;20270;-50
2023/02/03 07:33:22;;;;;;;18.97;3.97;;;;;;;17.12;100.00;102321.06;5064851;28;19923;-52
2023/02/03 07:35:55;;;;;;;14.55;3.95;;;;;;;16.70;100.00;102313.78;5065418;28;20060;-52
2023/02/03 07:38:23;;;;;;;20.23;4.90;;;;;;;16.95;100.00;102329.47;5062817;28;20060;-52
2023/02/03 07:40:48;;;;;;;16.50;4.87;;;;;;;16.30;100.00;102329.75;5063037;28;20306;-53
2023/02/03 07:43:14;;;;;;;24.38;6.32;;;;;;;15.92;100.00;102328.22;5055717;28;20266;-55
2023/02/03 07:45:40;;;;;;;34.53;8.20;;;;;;;16.36;100.00;102339.75;5061647;28;20046;-51
2023/02/03 07:48:06;;;;;;;28.33;7.07;;;;;;;16.91;100.00;102337.16;5066334;28;20039;-54
2023/02/03 07:50:32;;;;;;;30.30;7.10;;;;;;;16.80;100.00;102332.34;5061169;28;20089;-53
2023/02/03 07:52:58;;;;;;;13.48;4.68;;;;;;;16.59;100.00;102344.91;5064070;28;20037;-52
2023/02/03 07:55:24;;;;;;;17.27;4.33;;;;;;;16.38;100.00;102339.56;5063146;28;20064;-54
2023/02/03 07:57:53;;;;;;;20.23;5.65;;;;;;;16.24;100.00;102336.75;5062917;28;20277;-49
2023/02/03 08:00:19;;;;;;;16.77;3.47;;;;;;;16.71;100.00;102339.75;5061827;28;20044;-51
2023/02/03 08:02:45;;;;;;;13.73;5.18;;;;;;;16.75;100.00;102332.09;5061203;28;20354;-52
2023/02/03 08:05:12;;;;;;;24.33;5.50;;;;;;;15.90;100.00;102325.72;5065209;28;20041;-49
2023/02/03 08:07:37;;;;;;;;;;;;;;;16.24;100.00;102330.56;5062919;28;20072;-49
2023/02/03 08:10:04;;;;;;;20.10;6.80;;;;;;;16.75;100.00;102338.31;5063705;28;19924;-52
2023/02/03 08:12:30;;;;;;;17.00;6.30;;;;;;;16.89;100.00;102350.03;5060048;28;20334;-54
2023/02/03 08:14:55;;;;;;;20.43;5.70;;;;;;;16.78;100.00;102354.13;5059786;28;20065;-55
2023/02/03 08:17:21;;;;;;;26.02;6.50;;;;;;;16.76;100.00;102347.28;5063254;28;20045;-48
2023/02/03 08:19:47;;;;;;;11.90;4.53;;;;;;;16.72;100.00;102349.53;5059963;28;20045;-50
2023/02/03 08:22:15;;;;;;;21.37;4.50;;;;;;;16.65;100.00;102351.38;5057635;28;20048;-50
2023/02/03 08:24:45;;;;;;;23.83;7.60;;;;;;;17.14;100.00;102346.00;5059516;28;20274;-52
2023/02/03 08:27:16;;;;;;;20.80;5.33;;;;;;;16.36;100.00;102347.03;5061036;28;20270;-51
2023/02/03 08:29:43;;;;;;;25.40;7.50;;;;;;;16.74;100.00;102360.97;5062963;28;20259;-51
2023/02/03 08:32:10;;;;;;;23.23;7.68;;;;;;;16.76;100.00;102363.50;5059867;28;20289;-49
2023/02/03 08:34:36;;;;;;;23.37;6.57;;;;;;;16.45;100.00;102368.28;5063395;28;20047;-52
2023/02/03 08:37:02;;;;;;;23.20;6.82;;;;;;;17.40;100.00;102371.47;5056769;28;20275;-53
2023/02/03 08:39:27;;;;;;;20.75;5.68;;;;;;;16.56;100.00;102364.19;5057371;28;20055;-50
2023/02/03 08:41:53;;;;;;;25.30;5.93;;;;;;;17.09;100.00;102365.53;5057043;28;20041;-53
2023/02/03 08:44:19;;;;;;;24.55;7.13;;;;;;;17.26;100.00;102371.41;5067114;28;20029;-49
2023/02/03 08:46:48;;;;;;;17.33;6.73;;;;;;;17.04;100.00;102366.13;5062660;28;20037;-52
2023/02/03 08:49:14;;;;;;;22.43;4.03;;;;;;;17.25;100.00;102379.72;5062944;28;20029;-55
2023/02/03 08:51:40;;;;;;;19.37;5.40;;;;;;;16.91;100.00;102374.16;5061520;28;20326;-54
2023/02/03 08:54:05;;;;;;;24.30;6.13;;;;;;;17.22;100.00;102364.75;5061961;28;20029;-53
2023/02/03 08:56:32;;;;;;;20.67;6.93;;;;;;;17.42;100.00;102369.38;5057542;28;20333;-53
2023/02/03 08:58:59;;;;;;;25.73;5.83;;;;;;;17.26;100.00;102387.63;5059234;28;20092;-52
2023/02/03 09:01:24;;;;;;;15.83;5.97;;;;;;;17.68;100.00;102374.03;5061634;28;20301;-53
2023/02/03 09:03:51;;;;;;;24.40;5.93;;;;;;;17.44;100.00;102372.72;5063654;28;20037;-55
2023/02/03 09:06:16;;;;;;;18.50;5.57;;;;;;;17.37;100.00;102388.09;5060367;28;20041;-48
2023/02/03 09:08:44;;;;;;;24.45;5.18;;;;;;;17.70;100.00;102379.22;5059221;28;20034;-51
2023/02/03 09:11:12;;;;;;;19.03;7.00;;;;;;;17.31;100.00;102398.69;5061665;28;20037;-54
2023/02/03 09:13:38;;;;;;;31.07;6.93;;;;;;;17.28;100.00;102404.47;5062141;28;20294;-51
2023/02/03 09:16:06;;;;;;;29.10;8.02;;;;;;;17.25;100.00;102396.78;5060045;28;20277;-53
2023/02/03 09:18:32;;;;;;;27.10;6.17;;;;;;;17.25;100.00;102391.38;5058671;28;20033;-54
2023/02/03 09:21:02;;;;;;;23.98;5.68;;;;;;;17.37;100.00;102409.72;5062385;28;20304;-52
2023/02/03 09:23:28;;;;;;;25.00;6.17;;;;;;;17.43;100.00;102411.59;5063498;28;20055;-55
2023/02/03 09:25:53;;;;;;;24.90;6.20;;;;;;;17.68;100.00;102416.47;5062112;28;20269;-53
2023/02/03 09:28:19;;;;;;;19.00;5.63;;;;;;;17.49;100.00;102425.16;5058870;28;20101;-52
2023/02/03 09:30:44;;;;;;;24.37;5.90;;;;;;;17.80;100.00;102424.81;5057317;28;20061;-52
2023/02/03 09:33:09;;;;;;;18.40;6.07;;;;;;;17.92;100.00;102413.16;5064096;28;20120;-52
2023/02/03 09:35:35;;;;;;;22.67;5.57;;;;;;;17.60;100.00;102420.19;5063099;28;20057;-54
2023/02/03 09:38:01;;;;;;;18.80;5.60;;;;;;;18.07;100.00;102423.00;5062988;28;20033;-51
2023/02/03 09:40:32;;;;;;;22.83;4.30;;;;;;;17.39;100.00;102421.16;5062922;28;20297;-52
2023/02/03 09:43:02;;;;;;;18.80;5.10;;;;;;;17.61;100.00;102406.47;5061661;28;20280;-50
2023/02/03 09:45:29;;;;;;;20.33;5.00;;;;;;;17.32;100.00;102411.16;5052957;28;20283;-50
2023/02/03 09:48:09;;;;;;;26.53;5.13;;;;;;;18.18;100.00;102416.97;5058256;28;20274;-53
2023/02/03 09:50:38;;;;;;;28.00;6.43;;;;;;;17.69;100.00;102418.97;5054626;28;20265;-53
2023/02/03 09:53:11;;;;;;;16.40;5.00;;;;;;;17.52;100.00;102418.50;5059444;28;20293;-50
2023/02/03 09:55:43;;;;;;;21.60;6.00;;;;;;;17.47;100.00;102410.16;5061838;28;20266;-51
2023/02/03 09:58:19;;;;;;;20.93;6.30;;;;;;;17.25;100.00;102426.50;5056461;28;20266;-53
2023/02/03 10:00:50;;;;;;;28.92;7.40;;;;;;;18.49;100.00;102429.06;5053998;28;20293;-52
2023/02/03 10:03:37;;;;;;;22.43;7.80;;;;;;;18.23;100.00;102429.06;5060495;28;20029;-55
2023/02/03 10:06:02;;;;;;;17.10;5.10;;;;;;;18.03;100.00;102435.31;5062521;28;20328;-54
2023/02/03 10:08:52;;;;;;;17.85;4.28;;;;;;;17.73;100.00;102439.16;5063893;28;20036;-53
2023/02/03 10:11:18;;;;;;;23.50;4.23;;;;;;;19.01;100.00;102432.91;5061568;28;20037;-55
2023/02/03 10:14:09;;;;;;;17.83;4.70;;;;;;;18.10;100.00;102435.28;5063673;28;20277;-55
2023/02/03 10:16:57;;;;;;;13.93;3.13;;;;;;;18.14;100.00;102445.50;5063085;28;20046;-59
2023/02/03 10:19:29;;;;;;;19.20;3.13;;;;;;;18.08;100.00;102435.50;5061940;28;20296;-52
2023/02/03 10:21:59;;;;;;;13.00;2.87;;;;;;;17.85;100.00;102444.81;5063160;28;20296;-57
2023/02/03 10:24:49;;;;;;;14.57;2.63;;;;;;;18.26;100.00;102448.41;5066677;28;20330;-53
2023/02/03 10:27:23;;;;;;;12.40;3.43;;;;;;;18.07;100.00;102458.22;5066149;28;20266;-55
2023/02/03 10:30:18;;;;;;;14.03;2.73;;;;;;;17.57;100.00;102442.22;5061692;28;20300;-53
2023/02/03 10:32:44;;;;;;;10.67;1.97;;;;;;;18.40;100.00;102457.38;5059987;28;20273;-53
2023/02/03 10:35:13;;;;;;;11.57;2.20;;;;;;;18.21;100.00;102445.50;5066743;28;20290;-54
2023/02/03 10:37:44;;;;;;;14.57;2.70;;;;;;;18.39;100.00;102444.06;5061585;28;20266;-54
2023/02/03 10:40:13;;;;;;;13.13;2.40;;;;;;;18.29;100.00;102453.41;5064549;28;20285;-52
2023/02/03 10:45:23;;;;;;;14.40;1.80;;;;;;;18.92;100.00;102451.28;5065018;28;20277;-55
2023/02/03 10:47:53;;;;;;;8.03;2.30;;;;;;;18.67;100.00;102451.13;5063480;28;20301;-54
2023/02/03 10:50:31;;;;;;;16.67;2.03;;;;;;;18.95;100.00;102447.31;5064278;28;20025;-55
2023/02/03 10:53:16;;;;;;;12.90;1.95;;;;;;;18.36;100.00;102455.31;5061426;28;20267;-52
2023/02/03 10:55:44;;;;;;;17.83;3.43;;;;;;;18.99;100.00;102454.00;5064607;28;20040;-50
2023/02/03 10:58:26;;;;;;;11.03;2.63;;;;;;;17.75;100.00;102485.78;5064376;28;20278;-51
2023/02/03 11:00:57;;;;;;;9.10;1.93;;;;;;;18.42;100.00;102474.25;5060435;28;20293;-54
2023/02/03 11:03:28;;;;;;;9.10;2.37;;;;;;;18.34;100.00;102475.31;5067567;28;20274;-53
2023/02/03 11:06:23;;;;;;;13.63;2.37;;;;;;;18.59;100.00;102469.25;5066365;28;20282;-51
2023/02/03 11:08:50;;;;;;;21.50;2.63;;;;;;;18.49;100.00;102468.84;5067205;28;20283;-55
2023/02/03 11:11:23;;;;;;;17.27;2.73;;;;;;;19.34;100.00;102462.63;5066554;28;20290;-49
2023/02/03 11:14:13;;;;;;;14.10;2.97;;;;;;;18.76;100.00;102458.81;5066060;28;20284;-52
2023/02/03 11:16:39;;;;;;;13.53;2.67;;;;;;;19.16;100.00;102462.50;5063698;28;20261;-54
2023/02/03 11:19:13;;;;;;;9.15;2.15;;;;;;;18.70;100.00;102456.97;5062426;28;20281;-51
2023/02/03 11:21:38;;;;;;;4.70;2.00;;;;;;;18.64;100.00;102468.63;5063237;28;20116;-55
2023/02/03 11:24:10;;;;;;;10.27;2.10;;;;;;;19.01;100.00;102460.03;5060895;28;20278;-55
2023/02/03 11:26:50;;;;;;;7.87;2.20;;;;;;;18.82;100.00;102476.13;5062543;28;20048;-52